createdAt,value
2017-05-24T00:01:39.021Z,11.60
2017-05-24T00:04:07.262Z,11.70
2017-05-24T00:06:35.000Z,11.60
2017-05-24T00:09:02.754Z,11.60
2017-05-24T00:11:30.991Z,11.60
2017-05-24T00:13:58.738Z,11.50
2017-05-24T00:16:26.475Z,11.50
2017-05-24T00:18:54.238Z,11.50
2017-05-24T00:21:21.996Z,11.50
2017-05-24T00:23:49.740Z,11.50
2017-05-24T00:26:17.904Z,11.60
2017-05-24T00:28:45.641Z,11.50
2017-05-24T00:31:13.384Z,11.60
2017-05-24T00:33:41.149Z,11.60
2017-05-24T00:36:09.399Z,11.60
2017-05-24T00:38:37.146Z,11.60
2017-05-24T00:41:04.909Z,11.60
2017-05-24T00:43:32.656Z,11.50
2017-05-24T00:46:00.415Z,11.50
2017-05-24T00:48:28.473Z,11.50
2017-05-24T00:50:56.216Z,11.50
2017-05-24T00:53:23.953Z,11.50
2017-05-24T00:55:51.734Z,11.40
2017-05-24T00:58:19.487Z,11.40
2017-05-24T01:00:47.236Z,11.50
2017-05-24T01:03:15.772Z,11.50
2017-05-24T01:05:43.516Z,11.50
2017-05-24T01:08:11.252Z,11.40
2017-05-24T01:10:39.364Z,11.40
2017-05-24T01:13:07.106Z,11.40
2017-05-24T01:15:34.844Z,11.50
2017-05-24T01:18:02.972Z,11.40
2017-05-24T01:20:30.721Z,11.40
2017-05-24T01:22:58.470Z,11.30
2017-05-24T01:25:26.564Z,11.30
2017-05-24T01:27:54.308Z,11.30
2017-05-24T01:30:22.044Z,11.40
2017-05-24T01:32:50.160Z,11.40
2017-05-24T01:35:17.891Z,11.40
2017-05-24T01:37:45.636Z,11.40
2017-05-24T01:40:13.764Z,11.30
2017-05-24T01:42:41.529Z,11.30
2017-05-24T01:45:09.267Z,11.30
2017-05-24T01:47:37.363Z,11.30
2017-05-24T01:50:05.112Z,11.40
2017-05-24T01:52:32.848Z,11.50
2017-05-24T01:55:00.900Z,11.40
2017-05-24T01:57:28.628Z,11.40
2017-05-24T01:59:56.365Z,11.40
2017-05-24T02:02:24.663Z,11.40
2017-05-24T02:04:52.400Z,11.40
2017-05-24T02:07:20.152Z,11.40
2017-05-24T02:09:47.915Z,11.40
2017-05-24T02:12:15.652Z,11.30
2017-05-24T02:14:43.405Z,11.30
2017-05-24T02:17:11.196Z,11.40
2017-05-24T02:19:38.929Z,11.40
2017-05-24T02:22:06.678Z,11.30
2017-05-24T02:24:33.689Z,11.30
2017-05-24T02:27:01.456Z,11.40
2017-05-24T02:29:29.200Z,11.30
2017-05-24T02:31:57.836Z,11.30
2017-05-24T02:34:25.574Z,11.40
2017-05-24T02:36:53.311Z,11.40
2017-05-24T02:39:21.060Z,11.30
2017-05-24T02:41:48.819Z,11.30
2017-05-24T02:44:16.578Z,11.40
2017-05-24T02:46:44.655Z,11.40
2017-05-24T02:49:12.393Z,11.40
2017-05-24T02:51:40.133Z,11.50
2017-05-24T02:54:08.015Z,11.50
2017-05-24T02:56:35.753Z,11.40
2017-05-24T02:59:03.484Z,11.50
2017-05-24T03:01:31.543Z,11.50
2017-05-24T03:03:59.276Z,11.50
2017-05-24T03:06:27.002Z,11.60
2017-05-24T03:08:55.729Z,11.50
2017-05-24T03:11:22.700Z,11.50
2017-05-24T03:13:50.440Z,11.50
2017-05-24T03:16:18.608Z,11.50
2017-05-24T03:18:46.344Z,11.40
2017-05-24T03:21:14.082Z,11.40
2017-05-24T03:23:41.842Z,11.50
2017-05-24T03:26:09.572Z,11.40
2017-05-24T03:28:37.320Z,11.30
2017-05-24T03:31:05.089Z,11.40
2017-05-24T03:33:32.848Z,11.40
2017-05-24T03:36:00.592Z,11.30
2017-05-24T03:38:31.189Z,11.40
2017-05-24T03:40:58.924Z,11.40
2017-05-24T03:43:26.660Z,11.40
2017-05-24T03:45:54.412Z,11.40
2017-05-24T03:48:22.170Z,11.50
2017-05-24T03:50:49.908Z,11.50
2017-05-24T03:53:17.929Z,11.50
2017-05-24T03:55:45.665Z,11.60
2017-05-24T03:58:13.400Z,11.70
2017-05-24T04:00:42.032Z,11.70
2017-05-24T04:03:09.784Z,11.70
2017-05-24T04:05:37.513Z,11.70
2017-05-24T04:08:05.385Z,11.70
2017-05-24T04:10:33.129Z,11.70
2017-05-24T04:13:00.855Z,11.80
2017-05-24T04:15:29.027Z,11.90
2017-05-24T04:17:56.765Z,12.00
2017-05-24T04:20:24.515Z,12.20
2017-05-24T04:22:53.244Z,12.30
2017-05-24T04:25:20.972Z,12.30
2017-05-24T04:27:48.705Z,12.10
2017-05-24T04:30:16.838Z,12.20
2017-05-24T04:32:44.573Z,12.20
2017-05-24T04:35:12.320Z,12.10
2017-05-24T04:37:40.082Z,12.10
2017-05-24T04:40:09.017Z,12.00
2017-05-24T04:42:36.775Z,11.80
2017-05-24T04:45:04.540Z,11.70
2017-05-24T04:47:32.301Z,11.60
2017-05-24T04:50:00.041Z,11.80
2017-05-24T04:52:27.809Z,11.80
2017-05-24T04:54:55.568Z,11.90
2017-05-24T04:57:23.304Z,11.80
2017-05-24T04:59:51.064Z,11.60
2017-05-24T05:02:18.805Z,11.50
2017-05-24T05:04:46.570Z,11.60
2017-05-24T05:07:14.432Z,11.60
2017-05-24T05:09:42.160Z,11.50
2017-05-24T05:12:09.888Z,11.70
2017-05-24T05:14:37.651Z,11.70
2017-05-24T05:17:05.412Z,11.80
2017-05-24T05:19:33.146Z,12.00
2017-05-24T05:22:00.910Z,12.10
2017-05-24T05:24:28.640Z,12.20
2017-05-24T05:26:56.404Z,12.20
2017-05-24T05:29:24.919Z,12.30
2017-05-24T05:31:51.949Z,12.30
2017-05-24T05:34:19.684Z,12.40
2017-05-24T05:36:47.958Z,12.50
2017-05-24T05:39:15.691Z,12.40
2017-05-24T05:41:43.619Z,12.30
2017-05-24T05:44:11.595Z,12.30
2017-05-24T05:46:39.438Z,12.30
2017-05-24T05:49:07.169Z,12.10
2017-05-24T05:51:35.400Z,12.10
2017-05-24T05:54:03.131Z,12.30
2017-05-24T05:56:30.869Z,12.50
2017-05-24T05:58:59.001Z,12.50
2017-05-24T06:01:26.742Z,12.80
2017-05-24T06:03:54.468Z,12.70
2017-05-24T06:06:22.503Z,12.60
2017-05-24T06:08:50.230Z,12.70
2017-05-24T06:11:17.982Z,12.50
2017-05-24T06:13:45.741Z,12.60
2017-05-24T06:16:13.496Z,12.70
2017-05-24T06:18:41.227Z,12.90
2017-05-24T06:21:08.981Z,13.00
2017-05-24T06:23:36.727Z,13.10
2017-05-24T06:28:51.520Z,13.70
2017-05-24T06:31:18.486Z,13.60
2017-05-24T06:33:46.749Z,13.50
2017-05-24T06:36:15.036Z,13.40
2017-05-24T06:38:42.768Z,13.50
2017-05-24T06:41:10.492Z,13.70
2017-05-24T06:43:39.432Z,13.80
2017-05-24T06:46:07.160Z,13.80
2017-05-24T06:48:34.892Z,13.70
2017-05-24T06:51:02.647Z,13.90
2017-05-24T06:53:30.374Z,13.90
2017-05-24T06:55:58.129Z,14.10
2017-05-24T06:58:26.229Z,14.30
2017-05-24T07:00:53.974Z,14.60
2017-05-24T07:03:21.712Z,14.70
2017-05-24T07:05:49.576Z,14.70
2017-05-24T07:08:17.314Z,14.70
2017-05-24T07:10:45.059Z,14.70
2017-05-24T07:13:13.368Z,14.70
2017-05-24T07:15:41.092Z,14.60
2017-05-24T07:18:08.821Z,14.30
2017-05-24T07:20:37.012Z,14.30
2017-05-24T07:23:04.745Z,14.40
2017-05-24T07:25:32.484Z,14.60
2017-05-24T07:28:01.056Z,14.80
2017-05-24T07:30:28.788Z,15.10
2017-05-24T07:32:56.522Z,15.30
2017-05-24T07:35:24.604Z,15.10
2017-05-24T07:37:52.357Z,15.00
2017-05-24T07:40:20.112Z,14.90
2017-05-24T07:42:48.173Z,15.10
2017-05-24T07:45:15.899Z,15.20
2017-05-24T07:47:43.620Z,15.60
2017-05-24T07:50:11.387Z,16.00
2017-05-24T07:52:39.138Z,16.10
2017-05-24T07:55:06.884Z,16.30
2017-05-24T07:57:34.668Z,16.00
2017-05-24T08:00:02.401Z,15.60
2017-05-24T08:02:30.156Z,15.60
2017-05-24T08:04:58.316Z,15.90
2017-05-24T08:07:26.076Z,15.90
2017-05-24T08:09:53.835Z,15.60
2017-05-24T08:12:21.088Z,15.60
2017-05-24T08:14:48.813Z,15.40
2017-05-24T08:17:16.541Z,15.40
2017-05-24T08:19:44.313Z,15.50
2017-05-24T08:22:12.044Z,15.70
2017-05-24T08:24:39.009Z,15.70
2017-05-24T08:27:06.766Z,16.30
2017-05-24T08:29:34.489Z,16.40
2017-05-24T08:32:02.242Z,16.30
2017-05-24T08:34:30.108Z,16.30
2017-05-24T08:36:57.834Z,16.40
2017-05-24T08:39:25.577Z,16.50
2017-05-24T08:41:55.308Z,16.40
2017-05-24T08:44:23.043Z,16.20
2017-05-24T08:46:50.763Z,16.00
2017-05-24T08:49:19.004Z,15.80
2017-05-24T08:51:46.732Z,15.90
2017-05-24T08:54:14.468Z,16.20
2017-05-24T08:56:42.574Z,16.40
2017-05-24T08:59:10.307Z,16.60
2017-05-24T09:01:38.028Z,16.60
2017-05-24T09:04:05.782Z,16.00
2017-05-24T09:06:33.536Z,16.00
2017-05-24T09:09:01.467Z,16.40
2017-05-24T09:11:29.508Z,16.60
2017-05-24T09:13:57.244Z,16.30
2017-05-24T09:16:24.987Z,16.10
2017-05-24T09:18:52.732Z,16.00
2017-05-24T09:21:20.459Z,16.10
2017-05-24T09:23:48.212Z,16.40
2017-05-24T09:26:16.353Z,16.90
2017-05-24T09:28:44.085Z,17.10
2017-05-24T09:31:11.818Z,17.40
2017-05-24T09:33:39.965Z,17.70
2017-05-24T09:36:07.691Z,17.60
2017-05-24T09:38:35.879Z,17.50
2017-05-24T09:41:03.657Z,17.60
2017-05-24T09:43:31.388Z,17.80
2017-05-24T09:45:59.193Z,18.00
2017-05-24T09:48:27.447Z,18.10
2017-05-24T09:50:55.180Z,18.00
2017-05-24T09:53:22.913Z,17.80
2017-05-24T09:55:51.048Z,18.30
2017-05-24T09:58:18.772Z,18.10
2017-05-24T10:00:46.501Z,17.80
2017-05-24T10:03:14.681Z,18.10
2017-05-24T10:05:42.409Z,18.40
2017-05-24T10:08:10.141Z,18.50
2017-05-24T10:10:37.897Z,18.40
2017-05-24T10:13:05.625Z,17.90
2017-05-24T10:15:33.364Z,17.60
2017-05-24T10:18:01.439Z,17.70
2017-05-24T10:20:29.167Z,17.80
2017-05-24T10:22:56.122Z,17.80
2017-05-24T10:25:24.212Z,18.30
2017-05-24T10:27:51.945Z,18.40
2017-05-24T10:30:19.668Z,18.50
2017-05-24T10:32:46.995Z,18.60
2017-05-24T10:35:14.734Z,19.00
2017-05-24T10:37:42.461Z,18.50
2017-05-24T10:42:44.298Z,18.80
2017-05-24T10:45:12.369Z,19.20
2017-05-24T10:47:40.097Z,19.50
2017-05-24T10:50:09.492Z,19.50
2017-05-24T10:52:37.260Z,19.50
2017-05-24T10:55:05.015Z,19.40
2017-05-24T10:57:32.756Z,18.90
2017-05-24T11:00:00.983Z,19.30
2017-05-24T11:02:28.716Z,19.10
2017-05-24T11:04:56.463Z,19.00
2017-05-24T11:07:24.472Z,19.40
2017-05-24T11:09:52.204Z,19.90
2017-05-24T11:12:19.932Z,20.00
2017-05-24T11:14:47.997Z,19.20
2017-05-24T11:17:15.741Z,18.80
2017-05-24T11:19:43.479Z,18.60
2017-05-24T11:22:12.324Z,18.50
2017-05-24T11:24:40.076Z,18.40
2017-05-24T11:27:07.820Z,18.80
2017-05-24T11:29:36.835Z,19.30
2017-05-24T11:32:04.581Z,19.20
2017-05-24T11:34:32.312Z,18.90
2017-05-24T11:37:00.789Z,18.70
2017-05-24T11:39:28.513Z,18.80
2017-05-24T11:41:56.256Z,18.50
2017-05-24T11:44:24.026Z,18.20
2017-05-24T11:46:51.760Z,18.20
2017-05-24T11:49:19.511Z,18.40
2017-05-24T11:51:47.715Z,18.10
2017-05-24T11:54:15.455Z,18.00
2017-05-24T11:56:43.213Z,17.90
2017-05-24T11:59:11.064Z,18.10
2017-05-24T12:01:38.820Z,18.80
2017-05-24T12:04:06.549Z,19.60
2017-05-24T12:06:35.536Z,19.40
2017-05-24T12:09:03.273Z,18.60
2017-05-24T12:11:31.007Z,18.10
2017-05-24T12:13:59.075Z,18.50
2017-05-24T12:16:26.805Z,19.10
2017-05-24T12:18:54.641Z,18.90
2017-05-24T12:21:22.873Z,18.40
2017-05-24T12:23:50.615Z,18.60
2017-05-24T12:26:18.364Z,18.50
2017-05-24T12:28:46.168Z,18.20
2017-05-24T12:31:13.900Z,17.80
2017-05-24T12:33:41.638Z,17.80
2017-05-24T12:36:09.624Z,18.30
2017-05-24T12:38:37.353Z,18.60
2017-05-24T12:41:05.088Z,18.80
2017-05-24T12:43:33.302Z,18.60
2017-05-24T12:46:01.043Z,18.90
2017-05-24T12:48:28.771Z,19.60
2017-05-24T12:50:56.816Z,19.60
2017-05-24T12:53:25.709Z,19.60
2017-05-24T12:55:53.437Z,19.40
2017-05-24T12:58:22.680Z,19.10
2017-05-24T13:00:50.412Z,20.00
2017-05-24T13:03:17.395Z,20.00
2017-05-24T13:05:45.668Z,20.00
2017-05-24T13:08:13.452Z,19.90
2017-05-24T13:10:41.179Z,19.70
2017-05-24T13:13:08.925Z,19.80
2017-05-24T13:15:36.663Z,19.80
2017-05-24T13:18:04.400Z,19.80
2017-05-24T13:20:32.306Z,20.00
2017-05-24T13:23:00.033Z,20.60
2017-05-24T13:25:27.774Z,22.10
2017-05-24T13:27:55.938Z,22.20
2017-05-24T13:30:24.899Z,23.10
2017-05-24T13:32:52.645Z,24.80
2017-05-24T13:35:21.292Z,26.40
2017-05-24T13:37:49.019Z,28.40
2017-05-24T13:40:16.751Z,26.90
2017-05-24T13:42:43.840Z,26.90
2017-05-24T13:45:11.572Z,22.50
2017-05-24T13:47:39.291Z,25.00
2017-05-24T13:50:07.211Z,27.00
2017-05-24T13:52:34.946Z,27.00
2017-05-24T13:55:02.672Z,23.40
2017-05-24T13:57:30.436Z,21.70
2017-05-24T13:59:58.181Z,19.60
2017-05-24T14:02:25.900Z,19.90
2017-05-24T14:04:54.519Z,19.40
2017-05-24T14:07:22.308Z,20.10
2017-05-24T14:09:50.028Z,19.30
2017-05-24T14:12:17.789Z,19.30
2017-05-24T14:14:45.511Z,23.20
2017-05-24T14:17:13.229Z,23.40
2017-05-24T14:19:40.988Z,20.50
2017-05-24T14:22:08.712Z,19.10
2017-05-24T14:24:36.438Z,18.60
2017-05-24T14:27:04.728Z,18.40
2017-05-24T14:29:33.404Z,18.70
2017-05-24T14:32:01.124Z,19.10
2017-05-24T14:34:28.899Z,19.30
2017-05-24T14:36:56.630Z,18.90
2017-05-24T14:39:25.065Z,18.90
2017-05-24T14:41:53.951Z,21.80
2017-05-24T14:44:21.677Z,21.80
2017-05-24T14:46:49.413Z,26.20
2017-05-24T14:49:17.881Z,26.00
2017-05-24T14:51:45.611Z,24.70
2017-05-24T14:54:13.332Z,23.90
2017-05-24T14:56:41.376Z,22.90
2017-05-24T14:59:09.099Z,23.30
2017-05-24T15:01:36.820Z,23.50
2017-05-24T15:04:03.826Z,23.50
2017-05-24T15:06:31.552Z,23.90
2017-05-24T15:08:59.292Z,24.00
2017-05-24T15:11:27.773Z,23.30
2017-05-24T15:13:55.528Z,20.50
2017-05-24T15:16:23.272Z,19.50
2017-05-24T15:18:51.340Z,18.80
2017-05-24T15:21:18.310Z,18.70
2017-05-24T15:23:46.111Z,21.80
2017-05-24T15:26:13.863Z,21.00
2017-05-24T15:28:41.608Z,20.20
2017-05-24T15:31:09.335Z,20.50
2017-05-24T15:33:37.436Z,19.80
2017-05-24T15:36:05.165Z,18.70
2017-05-24T15:38:32.885Z,17.90
2017-05-24T15:41:01.840Z,17.70
2017-05-24T15:43:29.567Z,17.80
2017-05-24T15:45:57.297Z,18.00
2017-05-24T15:48:25.077Z,18.50
2017-05-24T15:50:52.904Z,18.60
2017-05-24T15:53:20.682Z,18.90
2017-05-24T15:55:48.448Z,21.60
2017-05-24T15:58:16.381Z,23.80
2017-05-24T16:00:44.144Z,24.30
2017-05-24T16:03:11.932Z,24.70
2017-05-24T16:05:39.652Z,25.90
2017-05-24T16:08:07.395Z,24.30
2017-05-24T16:10:35.518Z,23.20
2017-05-24T16:13:03.248Z,24.40
2017-05-24T16:15:30.987Z,26.20
2017-05-24T16:17:59.120Z,25.30
2017-05-24T16:20:26.854Z,23.80
2017-05-24T16:22:54.663Z,23.70
2017-05-24T16:25:22.721Z,24.30
2017-05-24T16:27:50.448Z,24.90
2017-05-24T16:30:18.168Z,24.20
2017-05-24T16:32:46.526Z,24.20
2017-05-24T16:35:14.262Z,23.90
2017-05-24T16:37:42.856Z,22.10
2017-05-24T16:40:10.648Z,22.20
2017-05-24T16:42:38.373Z,22.50
2017-05-24T16:45:06.103Z,22.20
2017-05-24T16:47:33.859Z,22.80
2017-05-24T16:50:01.581Z,22.70
2017-05-24T16:52:28.571Z,22.70
2017-05-24T16:54:57.352Z,20.70
2017-05-24T16:57:25.093Z,20.00
2017-05-24T16:59:52.069Z,19.90
2017-05-24T17:02:19.832Z,18.20
2017-05-24T17:04:47.585Z,18.90
2017-05-24T17:07:15.317Z,18.50
2017-05-24T17:09:43.608Z,19.00
2017-05-24T17:12:11.401Z,19.90
2017-05-24T17:14:39.131Z,20.60
2017-05-24T17:17:07.925Z,20.20
2017-05-24T17:19:35.675Z,20.00
2017-05-24T17:22:03.413Z,19.50
2017-05-24T17:24:31.996Z,19.10
2017-05-24T17:26:59.728Z,18.50
2017-05-24T17:29:27.449Z,17.70
2017-05-24T17:31:55.493Z,17.40
2017-05-24T17:34:23.212Z,16.90
2017-05-24T17:36:50.944Z,16.90
2017-05-24T17:39:18.821Z,16.60
2017-05-24T17:41:46.549Z,16.70
2017-05-24T17:44:14.302Z,16.80
2017-05-24T17:46:42.348Z,16.70
2017-05-24T17:49:09.336Z,16.60
2017-05-24T17:51:37.060Z,17.00
2017-05-24T17:54:05.972Z,16.90
2017-05-24T17:56:33.703Z,16.80
2017-05-24T17:59:01.425Z,16.50
2017-05-24T18:01:29.192Z,16.30
2017-05-24T18:03:56.924Z,16.20
2017-05-24T18:06:24.702Z,16.00
2017-05-24T18:08:52.488Z,16.00
2017-05-24T18:11:20.220Z,16.10
2017-05-24T18:13:47.953Z,16.20
2017-05-24T18:16:15.723Z,16.10
2017-05-24T18:18:43.447Z,16.00
2017-05-24T18:21:11.189Z,16.00
2017-05-24T18:23:39.277Z,15.90
2017-05-24T18:26:07.003Z,15.70
2017-05-24T18:28:34.733Z,15.60
2017-05-24T18:31:02.884Z,15.50
2017-05-24T18:33:30.610Z,15.40
2017-05-24T18:35:58.357Z,15.40
2017-05-24T18:38:26.124Z,15.30
2017-05-24T18:40:53.900Z,15.30
2017-05-24T18:43:21.644Z,15.30
2017-05-24T18:45:49.424Z,15.30
2017-05-24T18:48:17.169Z,15.10
2017-05-24T18:50:44.891Z,15.00
2017-05-24T18:53:12.293Z,14.90
2017-05-24T18:55:40.071Z,15.00
2017-05-24T18:58:07.797Z,15.00
2017-05-24T19:00:36.037Z,14.90
2017-05-24T19:03:02.997Z,14.90
2017-05-24T19:05:30.736Z,14.70
2017-05-24T19:08:00.885Z,14.60
2017-05-24T19:10:28.628Z,14.50
2017-05-24T19:12:55.593Z,14.40
2017-05-24T19:15:23.639Z,14.20
2017-05-24T19:17:51.426Z,14.20
2017-05-24T19:20:19.146Z,14.00
2017-05-24T19:22:47.209Z,14.00
2017-05-24T19:25:14.945Z,13.90
2017-05-24T19:27:42.678Z,13.90
2017-05-24T19:30:10.481Z,13.80
2017-05-24T19:32:38.290Z,13.90
2017-05-24T19:35:06.021Z,13.70
2017-05-24T19:37:35.597Z,13.70
2017-05-24T19:40:03.390Z,13.70
2017-05-24T19:42:32.748Z,13.60
2017-05-24T19:45:00.547Z,13.60
2017-05-24T19:47:28.304Z,13.60
2017-05-24T19:49:56.032Z,13.50
2017-05-24T19:52:23.784Z,13.50
2017-05-24T19:54:51.531Z,13.50
2017-05-24T19:57:19.256Z,13.40
2017-05-24T19:59:47.029Z,13.40
2017-05-24T20:02:14.760Z,13.30
2017-05-24T20:04:42.513Z,13.30
2017-05-24T20:07:10.281Z,13.20
2017-05-24T20:09:38.023Z,13.10
2017-05-24T20:12:05.777Z,13.10
2017-05-24T20:14:34.201Z,13.10
2017-05-24T20:17:01.932Z,13.00
2017-05-24T20:19:29.664Z,13.00
2017-05-24T20:21:58.016Z,12.90
2017-05-24T20:24:24.982Z,12.90
2017-05-24T20:26:52.708Z,12.80
2017-05-24T20:29:22.322Z,12.80
2017-05-24T20:31:50.060Z,12.70
2017-05-24T20:34:17.811Z,12.70
2017-05-24T20:36:45.914Z,12.70
2017-05-24T20:39:13.653Z,12.70
2017-05-24T20:41:41.386Z,12.70
2017-05-24T20:44:10.761Z,12.70
2017-05-24T20:46:38.493Z,12.60
2017-05-24T20:49:05.484Z,12.60
2017-05-24T20:51:33.788Z,12.60
2017-05-24T20:54:01.531Z,12.60
2017-05-24T20:56:29.300Z,12.50
2017-05-24T20:58:57.196Z,12.50
2017-05-24T21:01:24.928Z,12.50
2017-05-24T21:03:52.741Z,12.50
2017-05-24T21:06:21.855Z,12.50
2017-05-24T21:08:49.680Z,12.40
2017-05-24T21:11:17.577Z,12.40
2017-05-24T21:13:45.380Z,12.30
2017-05-24T21:16:13.121Z,12.30
2017-05-24T21:18:40.855Z,12.30
2017-05-24T21:21:08.622Z,12.30
2017-05-24T21:23:36.373Z,12.20
2017-05-24T21:26:04.129Z,12.20
2017-05-24T21:28:31.942Z,12.10
2017-05-24T21:30:59.676Z,12.10
2017-05-24T21:33:27.408Z,12.20
2017-05-24T21:35:55.206Z,12.10
2017-05-24T21:38:22.950Z,12.10
2017-05-24T21:40:52.061Z,12.10
2017-05-24T21:43:20.060Z,12.10
2017-05-24T21:45:47.851Z,12.10
2017-05-24T21:48:15.592Z,12.00
2017-05-24T21:50:43.360Z,12.00
2017-05-24T21:53:11.114Z,12.00
2017-05-24T21:55:38.860Z,12.00
2017-05-24T21:58:06.932Z,12.00
2017-05-24T22:00:34.666Z,11.90
2017-05-24T22:03:02.413Z,11.90
2017-05-24T22:05:30.583Z,11.90
2017-05-24T22:07:57.570Z,11.80
2017-05-24T22:10:25.332Z,11.80
2017-05-24T22:12:53.613Z,11.70
2017-05-24T22:15:21.440Z,11.70
2017-05-24T22:17:49.208Z,11.70
2017-05-24T22:20:17.801Z,11.60
2017-05-24T22:22:45.545Z,11.60
2017-05-24T22:25:13.288Z,11.50
2017-05-24T22:27:41.065Z,11.60
2017-05-24T22:30:08.830Z,11.50
2017-05-24T22:32:36.572Z,11.50
2017-05-24T22:35:04.641Z,11.40
2017-05-24T22:37:32.376Z,11.30
2017-05-24T22:40:00.120Z,11.30
2017-05-24T22:42:28.826Z,11.40
2017-05-24T22:44:55.792Z,11.30
2017-05-24T22:47:23.516Z,11.30
2017-05-24T22:49:52.117Z,11.40
2017-05-24T22:52:19.854Z,11.40
2017-05-24T22:54:47.580Z,11.30
2017-05-24T22:57:16.123Z,11.30
2017-05-24T22:59:43.853Z,11.30
2017-05-24T23:02:11.588Z,11.30
2017-05-24T23:04:39.345Z,11.30
2017-05-24T23:07:07.076Z,11.20
2017-05-24T23:09:34.817Z,11.10
2017-05-24T23:12:03.912Z,11.10
2017-05-24T23:14:30.897Z,11.10
2017-05-24T23:16:58.628Z,11.00
2017-05-24T23:19:27.385Z,11.00
2017-05-24T23:21:54.359Z,11.00
2017-05-24T23:24:22.088Z,10.90
2017-05-24T23:26:49.858Z,10.90
2017-05-24T23:29:16.823Z,10.90
2017-05-24T23:31:44.551Z,10.90
2017-05-24T23:34:12.996Z,10.90
2017-05-24T23:36:40.729Z,10.90
2017-05-24T23:39:08.461Z,10.90
2017-05-24T23:41:37.099Z,10.80
2017-05-24T23:44:04.828Z,10.80
2017-05-24T23:46:32.559Z,10.80
2017-05-24T23:49:01.249Z,10.80
2017-05-24T23:51:28.976Z,10.80
2017-05-24T23:53:56.712Z,10.80
2017-05-24T23:56:24.468Z,10.70
2017-05-24T23:58:52.220Z,10.70
